sensor_id;sensor_type;location;lat;lon;timestamp;noise_LAeq;noise_LA_min;noise_LA_max;noise_LA01;noise_LA95
72466;Laerm;60471;52.150;4.508;2023-07-29T00:01:36;56.61;41.83;71.12;;
72466;Laerm;60471;52.150;4.508;2023-07-29T00:04:03;52.94;42.48;64.64;;
72466;Laerm;60471;52.150;4.508;2023-07-29T00:06:29;53.01;42.03;64.21;;
72466;Laerm;60471;52.150;4.508;2023-07-29T00:08:55;53.51;40.94;64.97;;
72466;Laerm;60471;52.150;4.508;2023-07-29T00:11:21;52.57;42.18;63.31;;
72466;Laerm;60471;52.150;4.508;2023-07-29T00:13:48;52.69;40.07;64.18;;
72466;Laerm;60471;52.150;4.508;2023-07-29T00:16:16;54.15;42.67;71.86;;
72466;Laerm;60471;52.150;4.508;2023-07-29T00:18:43;53.04;41.10;64.35;;
72466;Laerm;60471;52.150;4.508;2023-07-29T00:21:10;53.28;41.58;64.92;;
72466;Laerm;60471;52.150;4.508;2023-07-29T00:23:36;53.45;40.62;63.93;;
72466;Laerm;60471;52.150;4.508;2023-07-29T00:26:02;52.52;40.61;64.00;;
72466;Laerm;60471;52.150;4.508;2023-07-29T00:28:29;53.17;41.68;64.33;;
72466;Laerm;60471;52.150;4.508;2023-07-29T00:30:55;52.31;41.26;63.67;;
72466;Laerm;60471;52.150;4.508;2023-07-29T00:33:21;52.39;40.83;63.93;;
72466;Laerm;60471;52.150;4.508;2023-07-29T00:35:48;52.90;41.63;64.15;;
72466;Laerm;60471;52.150;4.508;2023-07-29T00:38:14;53.25;42.55;64.61;;
72466;Laerm;60471;52.150;4.508;2023-07-29T00:40:40;53.65;40.97;64.74;;
72466;Laerm;60471;52.150;4.508;2023-07-29T00:43:06;54.69;41.82;66.92;;
72466;Laerm;60471;52.150;4.508;2023-07-29T00:45:34;53.81;40.84;66.91;;
72466;Laerm;60471;52.150;4.508;2023-07-29T00:48:02;52.62;41.05;64.05;;
72466;Laerm;60471;52.150;4.508;2023-07-29T00:50:31;53.92;40.98;66.46;;
72466;Laerm;60471;52.150;4.508;2023-07-29T00:52:58;53.64;43.20;64.30;;
72466;Laerm;60471;52.150;4.508;2023-07-29T00:55:24;52.99;40.92;65.63;;
72466;Laerm;60471;52.150;4.508;2023-07-29T00:57:51;55.34;40.98;66.46;;
72466;Laerm;60471;52.150;4.508;2023-07-29T01:00:21;52.74;41.92;65.54;;
72466;Laerm;60471;52.150;4.508;2023-07-29T01:02:48;53.24;42.13;64.46;;
72466;Laerm;60471;52.150;4.508;2023-07-29T01:05:16;54.92;40.74;67.31;;
72466;Laerm;60471;52.150;4.508;2023-07-29T01:08:06;52.29;41.18;63.66;;
72466;Laerm;60471;52.150;4.508;2023-07-29T01:13:19;53.68;41.37;65.38;;
72466;Laerm;60471;52.150;4.508;2023-07-29T01:15:59;54.11;41.68;67.96;;
72466;Laerm;60471;52.150;4.508;2023-07-29T01:18:31;55.10;42.03;67.49;;
72466;Laerm;60471;52.150;4.508;2023-07-29T01:21:01;54.70;43.36;67.49;;
72466;Laerm;60471;52.150;4.508;2023-07-29T01:23:33;54.65;43.17;67.37;;
72466;Laerm;60471;52.150;4.508;2023-07-29T01:26:00;54.54;40.81;67.48;;
72466;Laerm;60471;52.150;4.508;2023-07-29T01:28:27;55.86;42.01;67.46;;
72466;Laerm;60471;52.150;4.508;2023-07-29T01:33:59;55.08;40.52;67.95;;
72466;Laerm;60471;52.150;4.508;2023-07-29T01:36:31;53.48;40.81;68.17;;
72466;Laerm;60471;52.150;4.508;2023-07-29T01:39:02;55.43;40.59;67.68;;
72466;Laerm;60471;52.150;4.508;2023-07-29T01:41:29;53.30;40.27;65.87;;
72466;Laerm;60471;52.150;4.508;2023-07-29T01:43:57;56.29;42.02;67.39;;
72466;Laerm;60471;52.150;4.508;2023-07-29T01:46:23;55.20;41.05;67.96;;
72466;Laerm;60471;52.150;4.508;2023-07-29T01:48:49;55.18;40.32;68.12;;
72466;Laerm;60471;52.150;4.508;2023-07-29T01:51:15;55.92;40.74;68.56;;
72466;Laerm;60471;52.150;4.508;2023-07-29T01:53:42;55.81;42.29;68.43;;
72466;Laerm;60471;52.150;4.508;2023-07-29T01:56:08;52.72;39.77;63.98;;
72466;Laerm;60471;52.150;4.508;2023-07-29T01:58:34;55.66;39.92;68.11;;
72466;Laerm;60471;52.150;4.508;2023-07-29T02:01:00;56.14;40.25;67.84;;
72466;Laerm;60471;52.150;4.508;2023-07-29T02:03:27;54.69;40.48;67.35;;
72466;Laerm;60471;52.150;4.508;2023-07-29T02:05:54;56.36;42.52;69.46;;
72466;Laerm;60471;52.150;4.508;2023-07-29T02:08:20;55.14;40.93;68.65;;
72466;Laerm;60471;52.150;4.508;2023-07-29T02:10:46;53.10;40.12;66.81;;
72466;Laerm;60471;52.150;4.508;2023-07-29T02:13:14;55.52;42.07;68.00;;
72466;Laerm;60471;52.150;4.508;2023-07-29T02:15:40;53.62;42.26;64.05;;
72466;Laerm;60471;52.150;4.508;2023-07-29T02:18:07;55.05;41.00;67.40;;
72466;Laerm;60471;52.150;4.508;2023-07-29T02:20:33;55.62;42.06;67.77;;
72466;Laerm;60471;52.150;4.508;2023-07-29T02:22:59;53.08;42.12;65.10;;
72466;Laerm;60471;52.150;4.508;2023-07-29T02:25:26;55.65;42.06;67.50;;
72466;Laerm;60471;52.150;4.508;2023-07-29T02:27:52;54.10;41.90;67.18;;
72466;Laerm;60471;52.150;4.508;2023-07-29T02:30:18;56.20;41.73;67.29;;
72466;Laerm;60471;52.150;4.508;2023-07-29T02:32:44;54.70;42.34;67.94;;
72466;Laerm;60471;52.150;4.508;2023-07-29T02:35:12;52.77;40.63;64.28;;
72466;Laerm;60471;52.150;4.508;2023-07-29T02:37:38;56.34;42.14;67.75;;
72466;Laerm;60471;52.150;4.508;2023-07-29T02:40:05;54.95;40.40;67.36;;
72466;Laerm;60471;52.150;4.508;2023-07-29T02:42:32;53.20;43.18;64.01;;
72466;Laerm;60471;52.150;4.508;2023-07-29T02:44:58;52.88;42.08;63.99;;
72466;Laerm;60471;52.150;4.508;2023-07-29T02:47:24;53.73;41.89;67.09;;
72466;Laerm;60471;52.150;4.508;2023-07-29T02:49:51;55.75;41.10;68.35;;
72466;Laerm;60471;52.150;4.508;2023-07-29T02:52:17;55.74;42.19;67.67;;
72466;Laerm;60471;52.150;4.508;2023-07-29T02:54:43;55.90;42.42;68.21;;
72466;Laerm;60471;52.150;4.508;2023-07-29T02:57:09;53.60;41.64;67.62;;
72466;Laerm;60471;52.150;4.508;2023-07-29T02:59:35;54.93;42.72;67.35;;
72466;Laerm;60471;52.150;4.508;2023-07-29T03:02:02;55.20;41.49;67.47;;
72466;Laerm;60471;52.150;4.508;2023-07-29T03:04:28;55.25;43.02;68.14;;
72466;Laerm;60471;52.150;4.508;2023-07-29T03:06:54;52.77;42.02;63.97;;
72466;Laerm;60471;52.150;4.508;2023-07-29T03:09:20;55.19;42.12;68.04;;
72466;Laerm;60471;52.150;4.508;2023-07-29T03:11:46;53.16;43.77;63.99;;
72466;Laerm;60471;52.150;4.508;2023-07-29T03:14:13;53.42;43.83;64.22;;
72466;Laerm;60471;52.150;4.508;2023-07-29T03:16:39;53.29;43.66;64.46;;
72466;Laerm;60471;52.150;4.508;2023-07-29T03:19:05;54.02;43.07;64.20;;
72466;Laerm;60471;52.150;4.508;2023-07-29T03:21:34;55.38;43.00;67.97;;
72466;Laerm;60471;52.150;4.508;2023-07-29T03:24:00;55.58;42.46;68.14;;
72466;Laerm;60471;52.150;4.508;2023-07-29T03:26:27;55.79;44.00;67.47;;
72466;Laerm;60471;52.150;4.508;2023-07-29T03:28:53;53.24;44.18;64.23;;
72466;Laerm;60471;52.150;4.508;2023-07-29T03:31:19;52.86;43.96;64.50;;
72466;Laerm;60471;52.150;4.508;2023-07-29T03:33:46;55.52;43.98;67.98;;
72466;Laerm;60471;52.150;4.508;2023-07-29T03:36:12;53.63;43.78;64.99;;
72466;Laerm;60471;52.150;4.508;2023-07-29T03:38:38;53.81;43.24;66.94;;
72466;Laerm;60471;52.150;4.508;2023-07-29T03:41:08;55.61;43.96;68.49;;
72466;Laerm;60471;52.150;4.508;2023-07-29T03:43:34;54.99;43.77;67.68;;
72466;Laerm;60471;52.150;4.508;2023-07-29T03:46:01;54.92;43.54;67.55;;
72466;Laerm;60471;52.150;4.508;2023-07-29T03:48:27;54.70;45.33;65.00;;
72466;Laerm;60471;52.150;4.508;2023-07-29T03:50:53;53.25;43.86;64.76;;
72466;Laerm;60471;52.150;4.508;2023-07-29T03:53:20;54.82;43.74;67.83;;
72466;Laerm;60471;52.150;4.508;2023-07-29T03:55:46;53.58;44.02;64.66;;
72466;Laerm;60471;52.150;4.508;2023-07-29T03:58:13;53.34;44.04;65.41;;
72466;Laerm;60471;52.150;4.508;2023-07-29T04:00:39;53.23;43.16;64.34;;
72466;Laerm;60471;52.150;4.508;2023-07-29T04:03:05;53.41;43.65;65.19;;
72466;Laerm;60471;52.150;4.508;2023-07-29T04:05:32;55.86;43.18;69.33;;
72466;Laerm;60471;52.150;4.508;2023-07-29T04:07:58;52.91;43.98;64.19;;
72466;Laerm;60471;52.150;4.508;2023-07-29T04:10:27;53.06;42.11;65.60;;
72466;Laerm;60471;52.150;4.508;2023-07-29T04:12:54;53.40;43.32;64.21;;
72466;Laerm;60471;52.150;4.508;2023-07-29T04:15:20;53.14;44.35;63.67;;
72466;Laerm;60471;52.150;4.508;2023-07-29T04:17:46;53.22;43.39;63.94;;
72466;Laerm;60471;52.150;4.508;2023-07-29T04:20:18;53.20;42.90;64.12;;
72466;Laerm;60471;52.150;4.508;2023-07-29T04:22:44;53.36;44.75;64.32;;
72466;Laerm;60471;52.150;4.508;2023-07-29T04:25:10;53.28;43.96;64.50;;
72466;Laerm;60471;52.150;4.508;2023-07-29T04:27:36;55.09;45.40;64.43;;
72466;Laerm;60471;52.150;4.508;2023-07-29T04:30:03;53.70;45.10;64.31;;
72466;Laerm;60471;52.150;4.508;2023-07-29T04:32:29;53.64;45.40;64.60;;
72466;Laerm;60471;52.150;4.508;2023-07-29T04:34:56;53.54;44.73;65.31;;
72466;Laerm;60471;52.150;4.508;2023-07-29T04:37:22;54.59;44.90;64.85;;
72466;Laerm;60471;52.150;4.508;2023-07-29T04:39:48;53.88;45.35;64.69;;
72466;Laerm;60471;52.150;4.508;2023-07-29T04:42:15;54.40;45.05;70.77;;
72466;Laerm;60471;52.150;4.508;2023-07-29T04:44:41;54.26;45.14;64.56;;
72466;Laerm;60471;52.150;4.508;2023-07-29T04:47:10;54.62;45.93;64.69;;
72466;Laerm;60471;52.150;4.508;2023-07-29T04:49:36;55.93;45.19;65.97;;
72466;Laerm;60471;52.150;4.508;2023-07-29T04:52:03;56.61;44.94;69.92;;
72466;Laerm;60471;52.150;4.508;2023-07-29T04:54:29;53.34;43.94;63.48;;
72466;Laerm;60471;52.150;4.508;2023-07-29T04:56:56;54.37;45.25;64.81;;
72466;Laerm;60471;52.150;4.508;2023-07-29T04:59:22;55.39;45.39;69.06;;
72466;Laerm;60471;52.150;4.508;2023-07-29T05:01:48;55.23;45.26;67.35;;
72466;Laerm;60471;52.150;4.508;2023-07-29T05:04:14;54.77;44.05;64.21;;
72466;Laerm;60471;52.150;4.508;2023-07-29T05:06:41;54.51;45.13;72.11;;
72466;Laerm;60471;52.150;4.508;2023-07-29T05:09:16;55.45;45.10;67.28;;
72466;Laerm;60471;52.150;4.508;2023-07-29T05:11:42;55.39;43.93;68.18;;
72466;Laerm;60471;52.150;4.508;2023-07-29T05:14:13;53.86;44.88;64.66;;
72466;Laerm;60471;52.150;4.508;2023-07-29T05:16:40;55.21;44.74;65.66;;
72466;Laerm;60471;52.150;4.508;2023-07-29T05:19:06;53.61;44.89;64.85;;
72466;Laerm;60471;52.150;4.508;2023-07-29T05:21:37;54.50;46.19;64.27;;
72466;Laerm;60471;52.150;4.508;2023-07-29T05:24:04;54.02;45.11;64.48;;
72466;Laerm;60471;52.150;4.508;2023-07-29T05:26:30;55.66;45.34;69.10;;
72466;Laerm;60471;52.150;4.508;2023-07-29T05:28:56;55.11;46.04;64.22;;
72466;Laerm;60471;52.150;4.508;2023-07-29T05:31:23;54.69;45.58;63.34;;
72466;Laerm;60471;52.150;4.508;2023-07-29T05:33:49;55.28;46.11;68.18;;
72466;Laerm;60471;52.150;4.508;2023-07-29T05:36:15;54.52;45.76;64.24;;
72466;Laerm;60471;52.150;4.508;2023-07-29T05:38:41;54.46;46.21;64.01;;
72466;Laerm;60471;52.150;4.508;2023-07-29T05:41:08;56.36;45.11;65.22;;
72466;Laerm;60471;52.150;4.508;2023-07-29T05:43:34;55.10;46.15;64.78;;
72466;Laerm;60471;52.150;4.508;2023-07-29T05:46:00;54.24;45.76;64.43;;
72466;Laerm;60471;52.150;4.508;2023-07-29T05:48:27;54.81;47.02;64.11;;
72466;Laerm;60471;52.150;4.508;2023-07-29T05:50:53;54.17;45.67;64.21;;
72466;Laerm;60471;52.150;4.508;2023-07-29T05:53:19;56.45;46.46;64.51;;
72466;Laerm;60471;52.150;4.508;2023-07-29T05:55:45;54.20;45.74;64.02;;
72466;Laerm;60471;52.150;4.508;2023-07-29T05:58:12;56.93;47.51;66.33;;
72466;Laerm;60471;52.150;4.508;2023-07-29T06:00:38;54.31;45.43;65.44;;
72466;Laerm;60471;52.150;4.508;2023-07-29T06:03:04;54.74;46.24;64.63;;
72466;Laerm;60471;52.150;4.508;2023-07-29T06:05:31;55.78;45.13;65.51;;
72466;Laerm;60471;52.150;4.508;2023-07-29T06:07:57;55.07;45.35;64.63;;
72466;Laerm;60471;52.150;4.508;2023-07-29T06:10:23;55.23;45.86;67.13;;
72466;Laerm;60471;52.150;4.508;2023-07-29T06:12:49;54.87;45.49;64.13;;
72466;Laerm;60471;52.150;4.508;2023-07-29T06:15:16;54.52;45.19;65.39;;
72466;Laerm;60471;52.150;4.508;2023-07-29T06:17:42;54.64;45.70;65.82;;
72466;Laerm;60471;52.150;4.508;2023-07-29T06:20:09;54.90;45.95;73.06;;
72466;Laerm;60471;52.150;4.508;2023-07-29T06:22:35;56.58;45.49;67.24;;
72466;Laerm;60471;52.150;4.508;2023-07-29T06:25:01;55.10;44.49;65.09;;
72466;Laerm;60471;52.150;4.508;2023-07-29T06:27:27;54.06;44.39;63.60;;
72466;Laerm;60471;52.150;4.508;2023-07-29T06:29:54;54.30;45.59;63.57;;
72466;Laerm;60471;52.150;4.508;2023-07-29T06:32:20;54.54;45.39;64.84;;
72466;Laerm;60471;52.150;4.508;2023-07-29T06:34:46;55.79;44.76;64.82;;
72466;Laerm;60471;52.150;4.508;2023-07-29T06:37:12;54.76;45.93;63.59;;
72466;Laerm;60471;52.150;4.508;2023-07-29T06:39:39;54.42;46.33;64.04;;
72466;Laerm;60471;52.150;4.508;2023-07-29T06:42:05;54.26;44.32;63.41;;
72466;Laerm;60471;52.150;4.508;2023-07-29T06:44:32;54.69;44.59;64.00;;
72466;Laerm;60471;52.150;4.508;2023-07-29T06:46:59;55.54;47.19;64.90;;
72466;Laerm;60471;52.150;4.508;2023-07-29T06:49:25;55.80;46.44;66.99;;
72466;Laerm;60471;52.150;4.508;2023-07-29T06:51:51;55.03;47.48;63.70;;
72466;Laerm;60471;52.150;4.508;2023-07-29T06:54:17;56.69;45.67;66.25;;
72466;Laerm;60471;52.150;4.508;2023-07-29T06:56:43;55.03;45.19;65.28;;
72466;Laerm;60471;52.150;4.508;2023-07-29T06:59:10;55.13;45.84;64.00;;
72466;Laerm;60471;52.150;4.508;2023-07-29T07:01:36;56.46;47.01;65.16;;
72466;Laerm;60471;52.150;4.508;2023-07-29T07:04:02;55.83;46.84;67.58;;
72466;Laerm;60471;52.150;4.508;2023-07-29T07:06:28;55.79;49.01;64.19;;
72466;Laerm;60471;52.150;4.508;2023-07-29T07:08:55;56.56;49.21;64.69;;
72466;Laerm;60471;52.150;4.508;2023-07-29T07:11:21;55.58;47.29;64.10;;
72466;Laerm;60471;52.150;4.508;2023-07-29T07:13:47;55.19;48.83;67.05;;
72466;Laerm;60471;52.150;4.508;2023-07-29T07:16:13;56.58;47.01;66.09;;
72466;Laerm;60471;52.150;4.508;2023-07-29T07:18:40;54.94;46.49;66.88;;
72466;Laerm;60471;52.150;4.508;2023-07-29T07:21:06;58.52;50.02;66.87;;
72466;Laerm;60471;52.150;4.508;2023-07-29T07:23:32;56.31;48.52;65.92;;
72466;Laerm;60471;52.150;4.508;2023-07-29T07:25:59;58.08;51.73;72.24;;
72466;Laerm;60471;52.150;4.508;2023-07-29T07:28:25;57.18;49.42;76.67;;
72466;Laerm;60471;52.150;4.508;2023-07-29T07:30:51;56.62;47.45;74.24;;
72466;Laerm;60471;52.150;4.508;2023-07-29T07:33:17;56.98;49.68;67.38;;
72466;Laerm;60471;52.150;4.508;2023-07-29T07:35:44;57.00;49.76;72.80;;
72466;Laerm;60471;52.150;4.508;2023-07-29T07:38:10;56.60;49.23;69.53;;
72466;Laerm;60471;52.150;4.508;2023-07-29T07:40:37;57.84;50.76;69.55;;
72466;Laerm;60471;52.150;4.508;2023-07-29T07:43:03;58.47;51.09;69.91;;
72466;Laerm;60471;52.150;4.508;2023-07-29T07:45:29;58.78;51.14;71.61;;
72466;Laerm;60471;52.150;4.508;2023-07-29T07:47:56;56.76;47.55;78.76;;
72466;Laerm;60471;52.150;4.508;2023-07-29T07:50:22;57.25;50.24;77.37;;
72466;Laerm;60471;52.150;4.508;2023-07-29T07:52:50;57.89;48.50;66.84;;
72466;Laerm;60471;52.150;4.508;2023-07-29T07:55:16;56.55;49.81;64.32;;
72466;Laerm;60471;52.150;4.508;2023-07-29T07:57:42;57.40;48.48;65.40;;
72466;Laerm;60471;52.150;4.508;2023-07-29T08:00:09;57.55;47.81;64.91;;
72466;Laerm;60471;52.150;4.508;2023-07-29T08:02:35;56.69;48.77;64.38;;
72466;Laerm;60471;52.150;4.508;2023-07-29T08:05:02;56.86;49.26;65.73;;
72466;Laerm;60471;52.150;4.508;2023-07-29T08:07:28;56.44;45.70;65.47;;
72466;Laerm;60471;52.150;4.508;2023-07-29T08:09:54;57.27;46.63;71.70;;
72466;Laerm;60471;52.150;4.508;2023-07-29T08:12:20;57.51;47.83;70.79;;
72466;Laerm;60471;52.150;4.508;2023-07-29T08:14:46;57.06;48.38;64.28;;
72466;Laerm;60471;52.150;4.508;2023-07-29T08:17:13;58.57;50.33;78.19;;
72466;Laerm;60471;52.150;4.508;2023-07-29T08:19:39;57.56;49.41;74.89;;
72466;Laerm;60471;52.150;4.508;2023-07-29T08:22:05;58.15;49.30;68.05;;
72466;Laerm;60471;52.150;4.508;2023-07-29T08:24:31;58.20;49.71;74.67;;
72466;Laerm;60471;52.150;4.508;2023-07-29T08:26:58;57.89;48.96;65.15;;
72466;Laerm;60471;52.150;4.508;2023-07-29T08:29:24;57.55;50.23;67.94;;
72466;Laerm;60471;52.150;4.508;2023-07-29T08:31:50;58.60;50.03;72.17;;
72466;Laerm;60471;52.150;4.508;2023-07-29T08:34:17;57.82;50.43;66.25;;
72466;Laerm;60471;52.150;4.508;2023-07-29T08:36:44;57.88;49.39;72.37;;
72466;Laerm;60471;52.150;4.508;2023-07-29T08:39:10;58.85;49.02;74.68;;
72466;Laerm;60471;52.150;4.508;2023-07-29T08:41:54;57.48;49.70;65.42;;
72466;Laerm;60471;52.150;4.508;2023-07-29T08:44:26;56.92;48.74;66.80;;
72466;Laerm;60471;52.150;4.508;2023-07-29T08:46:53;57.47;49.42;64.47;;
72466;Laerm;60471;52.150;4.508;2023-07-29T08:49:19;57.01;49.56;66.27;;
72466;Laerm;60471;52.150;4.508;2023-07-29T08:51:50;58.17;47.40;72.13;;
72466;Laerm;60471;52.150;4.508;2023-07-29T08:54:19;58.64;49.90;66.05;;
72466;Laerm;60471;52.150;4.508;2023-07-29T08:56:46;57.56;50.18;75.68;;
72466;Laerm;60471;52.150;4.508;2023-07-29T08:59:13;54.93;47.15;65.16;;
72466;Laerm;60471;52.150;4.508;2023-07-29T09:01:41;59.84;51.33;66.28;;
72466;Laerm;60471;52.150;4.508;2023-07-29T09:04:08;58.56;50.56;67.46;;
72466;Laerm;60471;52.150;4.508;2023-07-29T09:06:35;57.34;46.72;66.75;;
72466;Laerm;60471;52.150;4.508;2023-07-29T09:09:02;58.65;51.14;65.44;;
72466;Laerm;60471;52.150;4.508;2023-07-29T09:11:29;59.70;48.36;75.08;;
72466;Laerm;60471;52.150;4.508;2023-07-29T09:13:55;57.85;48.79;67.62;;
72466;Laerm;60471;52.150;4.508;2023-07-29T09:16:21;57.86;49.82;68.12;;
72466;Laerm;60471;52.150;4.508;2023-07-29T09:18:50;60.14;48.93;69.01;;
72466;Laerm;60471;52.150;4.508;2023-07-29T09:21:24;56.41;48.20;66.20;;
72466;Laerm;60471;52.150;4.508;2023-07-29T09:23:55;57.26;49.64;66.88;;
72466;Laerm;60471;52.150;4.508;2023-07-29T09:26:28;57.13;47.89;64.35;;
72466;Laerm;60471;52.150;4.508;2023-07-29T09:28:56;54.64;46.55;62.62;;
72466;Laerm;60471;52.150;4.508;2023-07-29T09:31:25;54.96;46.46;75.11;;
72466;Laerm;60471;52.150;4.508;2023-07-29T09:34:04;56.45;48.78;65.87;;
72466;Laerm;60471;52.150;4.508;2023-07-29T09:36:33;58.99;51.51;67.25;;
72466;Laerm;60471;52.150;4.508;2023-07-29T09:39:00;59.18;51.31;69.68;;
72466;Laerm;60471;52.150;4.508;2023-07-29T09:41:29;58.88;51.48;66.85;;
72466;Laerm;60471;52.150;4.508;2023-07-29T09:43:59;57.93;47.87;65.78;;
72466;Laerm;60471;52.150;4.508;2023-07-29T09:46:36;57.64;48.30;64.18;;
72466;Laerm;60471;52.150;4.508;2023-07-29T09:49:07;56.47;47.51;70.14;;
72466;Laerm;60471;52.150;4.508;2023-07-29T09:51:38;57.68;46.76;64.72;;
72466;Laerm;60471;52.150;4.508;2023-07-29T09:54:05;56.41;47.51;65.38;;
72466;Laerm;60471;52.150;4.508;2023-07-29T09:56:32;57.00;48.29;66.30;;
72466;Laerm;60471;52.150;4.508;2023-07-29T09:58:58;57.89;47.56;70.08;;
72466;Laerm;60471;52.150;4.508;2023-07-29T10:01:25;57.65;48.66;65.56;;
72466;Laerm;60471;52.150;4.508;2023-07-29T10:03:52;56.62;48.25;65.22;;
72466;Laerm;60471;52.150;4.508;2023-07-29T10:06:19;57.34;47.75;65.47;;
72466;Laerm;60471;52.150;4.508;2023-07-29T10:08:47;57.46;48.71;64.07;;
72466;Laerm;60471;52.150;4.508;2023-07-29T10:11:15;58.91;47.55;72.56;;
72466;Laerm;60471;52.150;4.508;2023-07-29T10:13:42;56.92;47.24;64.28;;
72466;Laerm;60471;52.150;4.508;2023-07-29T10:16:09;56.39;46.98;65.34;;
72466;Laerm;60471;52.150;4.508;2023-07-29T10:18:36;57.65;47.84;65.06;;
72466;Laerm;60471;52.150;4.508;2023-07-29T10:21:02;57.47;49.16;67.85;;
72466;Laerm;60471;52.150;4.508;2023-07-29T10:23:38;58.48;49.43;71.67;;
72466;Laerm;60471;52.150;4.508;2023-07-29T10:26:10;58.37;50.79;65.76;;
72466;Laerm;60471;52.150;4.508;2023-07-29T10:28:41;58.61;50.07;65.36;;
72466;Laerm;60471;52.150;4.508;2023-07-29T10:31:15;57.78;48.83;65.47;;
72466;Laerm;60471;52.150;4.508;2023-07-29T10:33:43;57.58;50.09;65.24;;
72466;Laerm;60471;52.150;4.508;2023-07-29T10:36:11;56.45;47.35;65.47;;
72466;Laerm;60471;52.150;4.508;2023-07-29T10:38:38;56.21;48.03;64.25;;
72466;Laerm;60471;52.150;4.508;2023-07-29T10:41:05;58.36;51.12;66.01;;
72466;Laerm;60471;52.150;4.508;2023-07-29T10:43:36;58.01;49.41;67.96;;
72466;Laerm;60471;52.150;4.508;2023-07-29T10:46:34;57.80;50.19;66.49;;
72466;Laerm;60471;52.150;4.508;2023-07-29T10:49:01;57.05;48.39;66.43;;
72466;Laerm;60471;52.150;4.508;2023-07-29T10:51:30;57.62;48.53;64.95;;
72466;Laerm;60471;52.150;4.508;2023-07-29T10:54:10;57.11;51.42;65.03;;
72466;Laerm;60471;52.150;4.508;2023-07-29T10:56:42;57.99;50.20;65.32;;
72466;Laerm;60471;52.150;4.508;2023-07-29T11:01:49;57.45;49.78;65.34;;
72466;Laerm;60471;52.150;4.508;2023-07-29T11:12:46;57.11;49.12;65.64;;
72466;Laerm;60471;52.150;4.508;2023-07-29T11:18:01;58.30;49.09;66.58;;
72466;Laerm;60471;52.150;4.508;2023-07-29T11:20:30;59.16;48.64;68.34;;
72466;Laerm;60471;52.150;4.508;2023-07-29T11:23:00;60.62;53.51;71.80;;
72466;Laerm;60471;52.150;4.508;2023-07-29T11:25:30;61.39;52.41;67.62;;
72466;Laerm;60471;52.150;4.508;2023-07-29T11:27:59;59.58;49.74;72.39;;
72466;Laerm;60471;52.150;4.508;2023-07-29T11:30:26;59.03;52.58;74.52;;
72466;Laerm;60471;52.150;4.508;2023-07-29T11:32:54;57.58;50.43;65.26;;
72466;Laerm;60471;52.150;4.508;2023-07-29T11:35:21;57.23;48.84;65.62;;
72466;Laerm;60471;52.150;4.508;2023-07-29T11:37:50;57.66;47.11;66.16;;
72466;Laerm;60471;52.150;4.508;2023-07-29T11:40:23;57.84;48.65;64.51;;
72466;Laerm;60471;52.150;4.508;2023-07-29T11:42:51;57.76;49.86;65.77;;
72466;Laerm;60471;52.150;4.508;2023-07-29T11:45:21;58.60;48.34;65.68;;
72466;Laerm;60471;52.150;4.508;2023-07-29T11:47:48;58.30;48.84;65.95;;
72466;Laerm;60471;52.150;4.508;2023-07-29T11:50:15;58.68;49.83;76.85;;
72466;Laerm;60471;52.150;4.508;2023-07-29T11:52:46;57.46;48.18;66.32;;
72466;Laerm;60471;52.150;4.508;2023-07-29T11:55:14;58.43;47.57;79.69;;
72466;Laerm;60471;52.150;4.508;2023-07-29T11:57:43;58.14;49.60;66.41;;
72466;Laerm;60471;52.150;4.508;2023-07-29T12:00:11;57.53;48.29;65.63;;
72466;Laerm;60471;52.150;4.508;2023-07-29T12:02:40;56.38;49.01;71.69;;
72466;Laerm;60471;52.150;4.508;2023-07-29T12:05:09;59.50;50.34;67.45;;
72466;Laerm;60471;52.150;4.508;2023-07-29T12:07:38;57.67;49.32;71.04;;
72466;Laerm;60471;52.150;4.508;2023-07-29T12:10:06;57.53;48.99;67.53;;
72466;Laerm;60471;52.150;4.508;2023-07-29T12:12:32;58.48;49.94;67.29;;
72466;Laerm;60471;52.150;4.508;2023-07-29T12:14:58;59.14;49.93;67.69;;
72466;Laerm;60471;52.150;4.508;2023-07-29T12:17:25;57.93;48.21;73.12;;
72466;Laerm;60471;52.150;4.508;2023-07-29T12:19:54;57.74;48.95;74.83;;
72466;Laerm;60471;52.150;4.508;2023-07-29T12:22:21;58.30;50.04;69.08;;
72466;Laerm;60471;52.150;4.508;2023-07-29T12:24:51;58.93;49.86;68.83;;
72466;Laerm;60471;52.150;4.508;2023-07-29T12:27:18;59.30;52.72;65.90;;
72466;Laerm;60471;52.150;4.508;2023-07-29T12:29:47;58.09;49.99;66.15;;
72466;Laerm;60471;52.150;4.508;2023-07-29T12:32:14;57.62;48.94;65.59;;
72466;Laerm;60471;52.150;4.508;2023-07-29T12:34:41;57.62;50.66;65.06;;
72466;Laerm;60471;52.150;4.508;2023-07-29T12:37:07;57.24;49.17;67.29;;
72466;Laerm;60471;52.150;4.508;2023-07-29T12:39:40;57.44;49.57;66.68;;
72466;Laerm;60471;52.150;4.508;2023-07-29T12:42:07;57.94;50.29;66.10;;
72466;Laerm;60471;52.150;4.508;2023-07-29T12:44:37;56.96;47.79;68.14;;
72466;Laerm;60471;52.150;4.508;2023-07-29T12:47:06;56.82;48.12;65.67;;
72466;Laerm;60471;52.150;4.508;2023-07-29T12:49:32;57.41;50.08;67.03;;
72466;Laerm;60471;52.150;4.508;2023-07-29T12:51:59;59.16;49.92;66.15;;
72466;Laerm;60471;52.150;4.508;2023-07-29T12:54:26;58.20;51.05;65.85;;
72466;Laerm;60471;52.150;4.508;2023-07-29T12:56:52;58.02;50.64;69.01;;
72466;Laerm;60471;52.150;4.508;2023-07-29T12:59:18;56.95;47.55;64.47;;
72466;Laerm;60471;52.150;4.508;2023-07-29T13:01:45;56.51;48.54;65.14;;
72466;Laerm;60471;52.150;4.508;2023-07-29T13:04:11;57.89;47.39;65.49;;
72466;Laerm;60471;52.150;4.508;2023-07-29T13:06:38;57.68;48.63;67.51;;
72466;Laerm;60471;52.150;4.508;2023-07-29T13:09:04;56.85;48.48;66.66;;
72466;Laerm;60471;52.150;4.508;2023-07-29T13:11:31;56.35;47.19;67.82;;
72466;Laerm;60471;52.150;4.508;2023-07-29T13:14:03;56.74;48.85;73.93;;
72466;Laerm;60471;52.150;4.508;2023-07-29T13:16:29;57.63;49.99;67.22;;
72466;Laerm;60471;52.150;4.508;2023-07-29T13:18:56;56.73;48.94;64.83;;
72466;Laerm;60471;52.150;4.508;2023-07-29T13:21:23;57.83;51.10;72.88;;
72466;Laerm;60471;52.150;4.508;2023-07-29T13:23:50;57.66;48.62;67.91;;
72466;Laerm;60471;52.150;4.508;2023-07-29T13:26:16;57.79;47.43;72.57;;
72466;Laerm;60471;52.150;4.508;2023-07-29T13:28:42;57.91;47.96;68.74;;
72466;Laerm;60471;52.150;4.508;2023-07-29T13:31:08;56.58;49.42;65.80;;
72466;Laerm;60471;52.150;4.508;2023-07-29T13:33:35;56.28;49.45;64.58;;
72466;Laerm;60471;52.150;4.508;2023-07-29T13:36:01;56.41;46.82;63.17;;
72466;Laerm;60471;52.150;4.508;2023-07-29T13:38:30;58.06;49.33;65.86;;
72466;Laerm;60471;52.150;4.508;2023-07-29T13:40:56;57.10;48.60;65.29;;
72466;Laerm;60471;52.150;4.508;2023-07-29T13:43:23;56.70;47.80;65.91;;
72466;Laerm;60471;52.150;4.508;2023-07-29T13:45:49;58.05;48.06;63.82;;
72466;Laerm;60471;52.150;4.508;2023-07-29T13:48:16;57.25;50.23;65.34;;
72466;Laerm;60471;52.150;4.508;2023-07-29T13:50:42;57.48;49.59;64.81;;
72466;Laerm;60471;52.150;4.508;2023-07-29T13:53:09;58.53;51.02;69.31;;
72466;Laerm;60471;52.150;4.508;2023-07-29T13:55:36;57.87;50.98;64.91;;
72466;Laerm;60471;52.150;4.508;2023-07-29T13:58:03;57.54;50.40;66.22;;
72466;Laerm;60471;52.150;4.508;2023-07-29T14:00:29;57.90;50.41;67.05;;
72466;Laerm;60471;52.150;4.508;2023-07-29T14:02:55;56.93;50.04;73.54;;
72466;Laerm;60471;52.150;4.508;2023-07-29T14:05:21;57.58;49.19;66.55;;